< < Back
Terminal Aerodrome Forecast


Current Version              Previous Versions:   1  2  3  4  5  6  7  8  9  

Terminal Aerodrome Forecast

122
FTUS44 KMRX 211127
TAFTYS
TAF
KTYS 211127Z 2112/2212 23005KT P6SM SCT080
     FM211400 26008KT P6SM SCT050
     FM211700 30010KT P6SM BKN050
     FM220000 35005KT P6SM BKN035=

Latest METAR

686
SAUS80 KWBC 211400 RRB
MTRTYS
METAR KTYS 211353Z 23007KT 10SM FEW070 14/11 A3003 RMK AO2 SLP164
T01390106


USA.gov is the U.S. government's official web portal to all federal, state and local government web resources and services.